createdAt,value
2022-12-07T00:03:42.992Z,3.87
2022-12-07T00:09:06.435Z,4.01
2022-12-07T00:14:33.722Z,4.08
2022-12-07T00:20:01.747Z,4.01
2022-12-07T00:25:30.256Z,4.09
2022-12-07T00:30:56.690Z,4.41
2022-12-07T00:36:26.606Z,4.41
2022-12-07T00:41:43.422Z,4.48
2022-12-07T00:47:11.366Z,3.52
2022-12-07T00:52:35.326Z,3.72
2022-12-07T00:58:01.628Z,3.49
2022-12-07T01:03:27.702Z,4.19
2022-12-07T01:08:59.234Z,3.76
2022-12-07T01:14:22.896Z,3.80
2022-12-07T01:19:50.702Z,4.26
2022-12-07T01:25:17.973Z,4.33
2022-12-07T01:30:43.327Z,3.76
2022-12-07T01:36:14.018Z,3.56
2022-12-07T01:41:37.686Z,4.11
2022-12-07T01:47:04.059Z,4.03
2022-12-07T01:52:30.738Z,4.10
2022-12-07T01:58:01.131Z,3.97
2022-12-07T02:03:24.653Z,4.19
2022-12-07T02:08:52.612Z,3.79
2022-12-07T02:14:19.051Z,3.98
2022-12-07T02:19:42.626Z,3.74
2022-12-07T02:25:29.284Z,3.78
2022-12-07T02:30:58.587Z,4.29
2022-12-07T02:36:25.304Z,4.07
2022-12-07T02:41:52.919Z,4.15
2022-12-07T02:47:16.696Z,4.10
2022-12-07T02:52:42.951Z,4.34
2022-12-07T02:58:10.272Z,4.25
2022-12-07T03:03:42.316Z,4.55
2022-12-07T03:09:09.263Z,4.03
2022-12-07T03:14:37.594Z,3.96
2022-12-07T03:20:02.147Z,3.69
2022-12-07T03:25:24.860Z,3.77
2022-12-07T03:30:50.990Z,3.96
2022-12-07T03:36:18.163Z,4.05
2022-12-07T03:41:45.492Z,4.22
2022-12-07T03:47:08.514Z,4.14
2022-12-07T03:52:34.328Z,4.26
2022-12-07T03:58:07.877Z,4.27
2022-12-07T04:03:33.410Z,3.98
2022-12-07T04:08:57.249Z,3.95
2022-12-07T04:14:22.475Z,4.51
2022-12-07T04:19:47.340Z,4.14
2022-12-07T04:25:12.350Z,4.33
2022-12-07T04:30:37.156Z,4.25
2022-12-07T04:36:04.936Z,4.15
2022-12-07T04:41:45.168Z,4.35
2022-12-07T04:47:10.307Z,3.96
2022-12-07T04:52:37.412Z,4.58
2022-12-07T04:58:03.017Z,4.48
2022-12-07T05:03:30.174Z,3.98
2022-12-07T05:08:56.680Z,4.92
2022-12-07T05:14:29.034Z,4.44
2022-12-07T05:19:53.599Z,4.85
2022-12-07T05:25:33.872Z,4.85
2022-12-07T05:30:59.683Z,4.50
2022-12-07T05:36:21.678Z,4.35
2022-12-07T05:41:45.361Z,4.53
2022-12-07T05:47:22.956Z,4.80
2022-12-07T05:52:48.923Z,4.90
2022-12-07T05:58:12.958Z,4.38
2022-12-07T06:03:36.935Z,4.41
2022-12-07T06:09:04.325Z,4.12
2022-12-07T06:14:27.379Z,4.30
2022-12-07T06:19:51.234Z,4.09
2022-12-07T06:25:17.324Z,4.44
2022-12-07T06:30:44.304Z,4.55
2022-12-07T06:36:16.561Z,4.65
2022-12-07T06:41:43.863Z,4.30
2022-12-07T06:47:38.980Z,4.52
2022-12-07T06:52:34.418Z,4.36
2022-12-07T06:57:57.241Z,4.47
2022-12-07T07:03:24.393Z,4.32
2022-12-07T07:08:45.706Z,4.30
2022-12-07T07:14:09.551Z,3.88
2022-12-07T07:19:33.507Z,4.17
2022-12-07T07:24:57.273Z,4.33
2022-12-07T07:30:23.305Z,4.02
2022-12-07T07:35:49.035Z,3.92
2022-12-07T07:41:14.970Z,4.32
2022-12-07T07:46:42.448Z,4.05
2022-12-07T07:52:08.621Z,4.57
2022-12-07T07:57:35.120Z,3.91
2022-12-07T08:03:00.634Z,4.21
2022-12-07T08:08:24.728Z,4.08
2022-12-07T08:13:51.191Z,3.84
2022-12-07T08:19:15.652Z,4.51
2022-12-07T08:24:42.135Z,4.61
2022-12-07T08:30:06.389Z,4.91
2022-12-07T08:35:31.114Z,5.11
2022-12-07T08:40:53.296Z,4.71
2022-12-07T08:46:18.512Z,5.52
2022-12-07T08:51:41.865Z,4.84
2022-12-07T08:57:06.486Z,5.40
2022-12-07T09:02:30.933Z,4.57
2022-12-07T09:07:56.586Z,4.99
2022-12-07T09:13:22.950Z,5.35
2022-12-07T09:18:49.383Z,4.96
2022-12-07T09:24:12.548Z,4.68
2022-12-07T09:29:40.295Z,5.38
2022-12-07T09:35:04.064Z,5.62
2022-12-07T09:40:25.963Z,5.05
2022-12-07T09:45:53.493Z,5.35
2022-12-07T09:51:22.695Z,4.58
2022-12-07T09:56:41.435Z,5.74
2022-12-07T10:02:05.518Z,5.62
2022-12-07T10:07:45.605Z,5.30
2022-12-07T10:13:11.417Z,5.95
2022-12-07T10:18:37.109Z,5.58
2022-12-07T10:24:04.887Z,5.58
2022-12-07T10:29:29.415Z,5.46
2022-12-07T10:34:54.617Z,5.97
2022-12-07T10:40:46.308Z,5.13
2022-12-07T10:46:08.906Z,5.16
2022-12-07T10:51:45.790Z,5.48
2022-12-07T10:57:16.094Z,5.79
2022-12-07T11:02:44.146Z,5.14
2022-12-07T11:08:37.984Z,5.53
2022-12-07T11:14:08.740Z,6.15
2022-12-07T11:19:34.693Z,5.85
2022-12-07T11:25:16.911Z,5.62
2022-12-07T11:30:43.200Z,5.93
2022-12-07T11:36:09.878Z,5.32
2022-12-07T11:41:41.056Z,5.55
2022-12-07T11:47:04.976Z,5.60
2022-12-07T11:52:31.267Z,5.53
2022-12-07T11:58:00.397Z,5.54
2022-12-07T12:03:25.416Z,6.04
2022-12-07T12:14:35.552Z,5.65
2022-12-07T12:19:55.157Z,5.62
2022-12-07T12:25:22.662Z,4.63
2022-12-07T12:30:49.337Z,5.71
2022-12-07T12:36:32.173Z,5.41
2022-12-07T12:42:14.627Z,2.65
2022-12-07T12:47:42.449Z,1.64
2022-12-07T12:53:36.977Z,1.47
2022-12-07T12:59:04.753Z,1.41
2022-12-07T13:04:45.473Z,1.63
2022-12-07T13:10:10.620Z,1.60
2022-12-07T13:15:53.519Z,1.65
2022-12-07T13:21:37.213Z,1.52
2022-12-07T13:27:05.767Z,1.22
2022-12-07T13:32:29.913Z,1.53
2022-12-07T13:37:53.318Z,1.53
2022-12-07T13:43:16.253Z,1.47
2022-12-07T13:48:43.594Z,1.75
2022-12-07T13:54:08.796Z,2.13
2022-12-07T13:59:35.989Z,1.83
2022-12-07T14:05:02.269Z,2.15
2022-12-07T14:10:30.598Z,2.13
2022-12-07T14:15:54.462Z,2.19
2022-12-07T14:21:15.353Z,1.94
2022-12-07T14:26:40.693Z,2.11
2022-12-07T14:32:06.803Z,2.06
2022-12-07T14:37:48.601Z,2.11
2022-12-07T14:43:10.135Z,1.82
2022-12-07T14:53:58.875Z,2.02
2022-12-07T14:59:25.284Z,2.02
2022-12-07T15:04:51.396Z,1.97
2022-12-07T15:10:20.584Z,2.11
2022-12-07T15:15:39.635Z,2.22
2022-12-07T15:21:05.747Z,2.12
2022-12-07T15:26:34.722Z,1.71
2022-12-07T15:31:57.735Z,2.08
2022-12-07T15:37:23.477Z,1.74
2022-12-07T15:42:50.138Z,1.79
2022-12-07T15:48:29.224Z,1.94
2022-12-07T15:53:41.065Z,1.64
2022-12-07T15:59:04.801Z,1.66
2022-12-07T16:04:30.437Z,1.50
2022-12-07T16:09:55.869Z,1.84
2022-12-07T16:15:22.807Z,1.93
2022-12-07T16:20:44.833Z,2.12
2022-12-07T16:26:09.139Z,1.77
2022-12-07T16:31:35.507Z,2.13
2022-12-07T16:37:04.216Z,1.88
2022-12-07T16:42:25.848Z,2.09
2022-12-07T16:47:50.816Z,1.73
2022-12-07T16:53:11.859Z,1.92
2022-12-07T17:12:03.794Z,2.03
2022-12-07T17:17:27.821Z,2.20
2022-12-07T17:22:55.127Z,2.36
2022-12-07T17:28:19.509Z,1.98
2022-12-07T17:33:43.401Z,2.23
2022-12-07T17:39:11.398Z,2.70
2022-12-07T17:44:36.437Z,2.43
2022-12-07T17:50:06.718Z,2.25
2022-12-07T17:55:25.456Z,2.46
2022-12-07T18:00:50.178Z,2.61
2022-12-07T18:06:16.641Z,2.56
2022-12-07T18:11:43.630Z,2.47
2022-12-07T18:17:11.244Z,2.46
2022-12-07T18:22:36.475Z,2.50
2022-12-07T18:28:04.705Z,2.52
2022-12-07T18:33:29.336Z,2.37
2022-12-07T18:38:54.904Z,2.56
2022-12-07T18:44:21.319Z,2.39
2022-12-07T18:49:46.310Z,2.76
2022-12-07T18:55:10.931Z,2.12
2022-12-07T19:00:37.339Z,2.39
2022-12-07T19:06:02.429Z,2.50
2022-12-07T19:11:27.721Z,2.79
2022-12-07T19:16:53.787Z,2.58
2022-12-07T19:22:20.115Z,3.09
2022-12-07T19:27:47.183Z,2.83
2022-12-07T19:33:08.206Z,2.77
2022-12-07T19:38:29.520Z,3.26
2022-12-07T19:43:55.515Z,4.04
2022-12-07T19:49:22.600Z,4.83
2022-12-07T19:54:46.920Z,4.52
2022-12-07T20:00:13.989Z,5.04
2022-12-07T20:05:42.287Z,4.99
2022-12-07T20:11:09.406Z,5.65
2022-12-07T20:16:33.576Z,5.63
2022-12-07T20:21:59.200Z,5.08
2022-12-07T20:27:26.357Z,4.84
2022-12-07T20:32:50.267Z,5.88
2022-12-07T20:38:15.557Z,5.85
2022-12-07T20:43:42.614Z,5.87
2022-12-07T20:49:09.795Z,5.39
2022-12-07T20:54:36.187Z,5.90
2022-12-07T21:00:00.486Z,6.50
2022-12-07T21:05:25.564Z,5.15
2022-12-07T21:10:49.842Z,6.03
2022-12-07T21:16:14.905Z,6.03
2022-12-07T21:21:41.401Z,5.60
2022-12-07T21:27:04.615Z,6.27
2022-12-07T21:32:31.002Z,6.27
2022-12-07T21:37:54.407Z,5.31
2022-12-07T21:43:19.179Z,6.70
2022-12-07T21:48:46.437Z,6.15
2022-12-07T21:54:10.806Z,6.50
2022-12-07T21:59:37.178Z,6.11
2022-12-07T22:05:04.000Z,6.40
2022-12-07T22:10:25.845Z,6.72
2022-12-07T22:15:50.384Z,6.67
2022-12-07T22:21:17.770Z,6.80
2022-12-07T22:26:42.910Z,6.22
2022-12-07T22:32:39.768Z,6.17
2022-12-07T22:37:37.968Z,6.83
2022-12-07T22:43:05.033Z,6.79
2022-12-07T22:48:27.128Z,6.52
2022-12-07T22:53:54.367Z,5.92
2022-12-07T22:59:18.439Z,7.32
2022-12-07T23:04:42.663Z,6.40
2022-12-07T23:10:08.793Z,6.87
2022-12-07T23:15:36.432Z,5.49
2022-12-07T23:21:02.457Z,6.94
2022-12-07T23:26:31.905Z,4.59
2022-12-07T23:31:52.898Z,6.68
2022-12-07T23:37:18.693Z,6.56
2022-12-07T23:42:44.801Z,5.93
2022-12-07T23:48:08.733Z,6.74
2022-12-07T23:53:36.418Z,6.14
2022-12-07T23:59:01.279Z,7.11
